createdAt,value
2023-04-15T00:02:55.770Z,90.07
2023-04-15T00:06:01.963Z,90.15
2023-04-15T00:09:04.632Z,90.01
2023-04-15T00:12:08.288Z,89.91
2023-04-15T00:15:12.700Z,90.02
2023-04-15T00:18:15.310Z,89.96
2023-04-15T00:21:17.489Z,90.08
2023-04-15T00:24:19.620Z,90.01
2023-04-15T00:27:21.896Z,89.99
2023-04-15T00:30:26.666Z,90.11
2023-04-15T00:33:31.509Z,89.95
2023-04-15T00:36:35.300Z,90.08
2023-04-15T00:39:37.605Z,89.79
2023-04-15T00:42:42.709Z,89.77
2023-04-15T00:45:45.027Z,89.66
2023-04-15T00:48:47.840Z,89.49
2023-04-15T00:51:50.059Z,89.56
2023-04-15T00:54:53.287Z,89.47
2023-04-15T00:57:56.557Z,89.91
2023-04-15T01:00:59.404Z,89.81
2023-04-15T01:04:02.646Z,89.57
2023-04-15T01:07:05.223Z,89.89
2023-04-15T01:10:08.511Z,89.20
2023-04-15T01:13:13.917Z,89.61
2023-04-15T01:16:17.282Z,89.75
2023-04-15T01:19:21.545Z,89.72
2023-04-15T01:22:26.946Z,90.02
2023-04-15T01:25:33.630Z,89.47
2023-04-15T01:28:37.847Z,89.98
2023-04-15T01:31:40.584Z,89.97
2023-04-15T01:34:43.085Z,90.08
2023-04-15T01:37:45.709Z,89.85
2023-04-15T01:40:48.363Z,90.29
2023-04-15T01:43:50.480Z,90.24
2023-04-15T01:46:52.956Z,90.28
2023-04-15T01:49:56.306Z,90.48
2023-04-15T01:52:58.714Z,90.07
2023-04-15T01:56:02.525Z,90.18
2023-04-15T01:59:04.781Z,90.31
2023-04-15T02:02:07.177Z,90.30
2023-04-15T02:05:09.849Z,90.23
2023-04-15T02:08:12.909Z,90.11
2023-04-15T02:11:17.814Z,90.01
2023-04-15T02:14:20.256Z,89.89
2023-04-15T02:17:23.517Z,90.12
2023-04-15T02:20:26.001Z,90.14
2023-04-15T02:23:28.344Z,90.40
2023-04-15T02:26:32.973Z,90.43
2023-04-15T02:29:35.325Z,90.38
2023-04-15T02:32:38.533Z,90.58
2023-04-15T02:35:44.668Z,90.26
2023-04-15T02:38:47.123Z,90.39
2023-04-15T02:41:53.545Z,90.37
2023-04-15T02:44:59.884Z,90.20
2023-04-15T02:48:07.064Z,90.57
2023-04-15T02:51:20.253Z,90.52
2023-04-15T02:54:23.569Z,90.53
2023-04-15T02:57:26.511Z,90.32
2023-04-15T03:00:30.905Z,90.57
2023-04-15T03:03:33.724Z,90.31
2023-04-15T03:06:38.726Z,90.25
2023-04-15T03:09:49.055Z,90.32
2023-04-15T03:12:51.607Z,90.35
2023-04-15T03:15:56.843Z,90.91
2023-04-15T03:19:01.665Z,90.67
2023-04-15T03:22:04.996Z,90.66
2023-04-15T03:25:08.185Z,90.62
2023-04-15T03:28:10.859Z,90.64
2023-04-15T03:31:13.727Z,90.32
2023-04-15T03:34:16.413Z,90.96
2023-04-15T03:37:18.776Z,90.75
2023-04-15T03:40:41.679Z,91.08
2023-04-15T03:43:45.684Z,90.28
2023-04-15T03:46:48.450Z,90.62
2023-04-15T03:49:51.010Z,90.70
2023-04-15T03:52:53.477Z,90.88
2023-04-15T03:55:56.349Z,91.10
2023-04-15T03:59:01.665Z,90.81
2023-04-15T04:02:07.642Z,90.72
2023-04-15T04:05:10.275Z,91.02
2023-04-15T04:08:16.650Z,91.33
2023-04-15T04:11:19.169Z,91.10
2023-04-15T04:14:21.892Z,90.74
2023-04-15T04:17:24.464Z,91.07
2023-04-15T04:20:26.876Z,91.50
2023-04-15T04:23:29.368Z,91.43
2023-04-15T04:26:34.768Z,91.00
2023-04-15T04:29:37.119Z,91.15
2023-04-15T04:32:39.522Z,91.25
2023-04-15T04:35:44.302Z,91.50
2023-04-15T04:38:46.680Z,91.23
2023-04-15T04:41:49.036Z,91.39
2023-04-15T04:44:52.933Z,91.12
2023-04-15T04:47:55.708Z,91.72
2023-04-15T04:50:58.305Z,91.28
2023-04-15T04:54:08.906Z,91.41
2023-04-15T04:57:13.912Z,91.13
2023-04-15T05:00:19.653Z,91.14
2023-04-15T05:03:25.206Z,91.34
2023-04-15T05:06:28.108Z,91.17
2023-04-15T05:09:32.670Z,91.45
2023-04-15T05:12:36.034Z,91.38
2023-04-15T05:15:40.065Z,91.56
2023-04-15T05:18:42.699Z,91.49
2023-04-15T05:21:45.056Z,91.21
2023-04-15T05:24:47.406Z,91.01
2023-04-15T05:27:52.404Z,91.16
2023-04-15T05:30:57.080Z,91.47
2023-04-15T05:33:59.607Z,91.53
2023-04-15T05:37:01.886Z,91.49
2023-04-15T05:40:04.834Z,91.45
2023-04-15T05:43:07.167Z,91.66
2023-04-15T05:46:09.777Z,91.49
2023-04-15T05:49:14.735Z,91.67
2023-04-15T05:52:19.802Z,91.60
2023-04-15T05:55:22.454Z,91.44
2023-04-15T05:58:24.711Z,91.53
2023-04-15T06:01:27.068Z,91.65
2023-04-15T06:04:29.512Z,90.80
2023-04-15T06:07:32.013Z,91.63
2023-04-15T06:10:37.029Z,91.80
2023-04-15T06:13:39.282Z,91.36
2023-04-15T06:16:41.640Z,91.90
2023-04-15T06:19:43.706Z,91.86
2023-04-15T06:22:45.742Z,92.03
2023-04-15T06:25:47.727Z,91.88
2023-04-15T06:28:51.445Z,91.79
2023-04-15T06:31:53.679Z,92.08
2023-04-15T06:34:55.866Z,92.11
2023-04-15T06:37:58.085Z,91.93
2023-04-15T06:41:01.085Z,91.96
2023-04-15T06:44:08.945Z,91.92
2023-04-15T06:47:14.205Z,91.96
2023-04-15T06:50:18.303Z,91.94
2023-04-15T06:53:22.076Z,91.82
2023-04-15T06:56:25.142Z,91.88
2023-04-15T06:59:28.820Z,91.84
2023-04-15T07:02:37.703Z,91.70
2023-04-15T07:05:42.109Z,91.86
2023-04-15T07:08:51.029Z,92.07
2023-04-15T07:11:58.466Z,91.69
2023-04-15T07:15:11.479Z,91.75
2023-04-15T07:18:16.978Z,91.42
2023-04-15T07:21:21.506Z,91.34
2023-04-15T07:24:30.437Z,91.05
2023-04-15T07:27:50.406Z,91.12
2023-04-15T07:30:58.012Z,91.07
2023-04-15T07:34:06.064Z,91.19
2023-04-15T07:37:17.993Z,91.10
2023-04-15T07:40:42.178Z,90.77
2023-04-15T07:44:11.672Z,90.71
2023-04-15T07:47:40.876Z,90.65
2023-04-15T07:50:58.922Z,90.60
2023-04-15T07:54:21.504Z,90.43
2023-04-15T07:57:51.425Z,90.29
2023-04-15T08:01:13.207Z,90.32
2023-04-15T08:04:39.527Z,90.40
2023-04-15T08:08:14.998Z,90.41
2023-04-15T08:11:27.440Z,90.41
2023-04-15T08:14:52.148Z,90.28
2023-04-15T08:17:58.185Z,90.47
2023-04-15T08:21:00.319Z,90.36
2023-04-15T08:24:03.433Z,90.49
2023-04-15T08:27:05.951Z,90.36
2023-04-15T08:30:08.699Z,90.37
2023-04-15T08:33:10.768Z,90.22
2023-04-15T08:36:14.112Z,90.17
2023-04-15T08:39:16.262Z,90.08
2023-04-15T08:42:22.065Z,90.06
2023-04-15T08:45:24.237Z,90.18
2023-04-15T08:48:29.873Z,90.16
2023-04-15T08:51:33.934Z,89.98
2023-04-15T08:54:36.917Z,89.79
2023-04-15T08:57:40.046Z,89.89
2023-04-15T09:00:42.253Z,90.02
2023-04-15T09:03:44.559Z,89.85
2023-04-15T09:06:47.487Z,89.81
2023-04-15T09:09:49.736Z,90.08
2023-04-15T09:12:52.078Z,89.78
2023-04-15T09:15:54.163Z,89.48
2023-04-15T09:18:56.368Z,89.68
2023-04-15T09:21:59.778Z,89.44
2023-04-15T09:25:01.941Z,88.82
2023-04-15T09:28:04.558Z,88.32
2023-04-15T09:31:06.679Z,88.54
2023-04-15T09:34:08.820Z,88.82
2023-04-15T09:37:11.431Z,88.67
2023-04-15T09:40:13.986Z,88.24
2023-04-15T09:43:17.720Z,88.48
2023-04-15T09:46:20.357Z,88.24
2023-04-15T09:49:22.395Z,88.01
2023-04-15T09:52:24.456Z,87.04
2023-04-15T09:55:26.840Z,87.47
2023-04-15T09:58:31.420Z,87.73
2023-04-15T10:01:33.720Z,87.47
2023-04-15T10:04:40.089Z,87.70
2023-04-15T10:07:43.010Z,87.45
2023-04-15T10:10:46.979Z,87.49
2023-04-15T10:13:50.770Z,87.24
2023-04-15T10:16:56.702Z,87.63
2023-04-15T10:20:01.442Z,87.32
2023-04-15T10:23:03.930Z,87.30
2023-04-15T10:26:07.305Z,86.98
2023-04-15T10:29:10.710Z,86.82
2023-04-15T10:32:14.042Z,86.22
2023-04-15T10:35:18.535Z,86.67
2023-04-15T10:38:34.178Z,86.79
2023-04-15T10:41:36.557Z,87.06
2023-04-15T10:44:43.362Z,87.41
2023-04-15T10:47:45.752Z,87.18
2023-04-15T10:50:59.366Z,86.27
2023-04-15T10:54:01.754Z,85.94
2023-04-15T10:57:06.950Z,85.05
2023-04-15T11:00:13.292Z,86.16
2023-04-15T11:03:16.079Z,86.26
2023-04-15T11:06:18.429Z,86.58
2023-04-15T11:09:38.057Z,85.54
2023-04-15T11:12:42.211Z,83.20
2023-04-15T11:15:48.862Z,80.79
2023-04-15T11:18:56.182Z,81.59
2023-04-15T11:21:58.243Z,83.48
2023-04-15T11:25:00.243Z,84.10
2023-04-15T11:28:02.848Z,84.16
2023-04-15T11:31:13.920Z,83.90
2023-04-15T11:34:23.280Z,82.58
2023-04-15T11:37:30.200Z,79.22
2023-04-15T11:40:36.046Z,80.70
2023-04-15T11:43:39.134Z,81.63
2023-04-15T11:46:41.356Z,79.86
2023-04-15T11:49:43.622Z,83.08
2023-04-15T11:53:01.771Z,82.53
2023-04-15T11:56:03.992Z,82.48
2023-04-15T11:59:05.985Z,82.59
2023-04-15T12:02:14.522Z,82.52
2023-04-15T12:05:17.062Z,79.59
2023-04-15T12:08:19.115Z,82.15
2023-04-15T12:11:27.873Z,76.86
2023-04-15T12:14:33.898Z,78.83
2023-04-15T12:17:51.368Z,78.72
2023-04-15T12:20:54.803Z,77.79
2023-04-15T12:23:58.593Z,79.91
2023-04-15T12:27:05.320Z,78.62
2023-04-15T12:30:08.314Z,77.27
2023-04-15T12:33:10.725Z,75.69
2023-04-15T12:36:13.674Z,74.57
2023-04-15T12:39:16.063Z,72.95
2023-04-15T12:42:19.122Z,74.40
2023-04-15T12:45:21.716Z,75.20
2023-04-15T12:48:23.716Z,75.00
2023-04-15T12:51:26.619Z,74.38
2023-04-15T12:54:29.721Z,74.89
2023-04-15T12:57:31.756Z,72.50
2023-04-15T13:03:56.569Z,75.35
2023-04-15T13:06:58.783Z,73.65
2023-04-15T13:10:00.847Z,70.28
2023-04-15T13:13:03.721Z,72.76
2023-04-15T13:16:06.522Z,71.33
2023-04-15T13:19:08.784Z,70.91
2023-04-15T13:22:11.727Z,74.02
2023-04-15T13:25:13.833Z,71.50
2023-04-15T13:28:15.980Z,73.48
2023-04-15T13:31:18.035Z,72.97
2023-04-15T13:34:20.106Z,74.31
2023-04-15T13:37:28.189Z,73.93
2023-04-15T13:40:31.227Z,73.33
2023-04-15T13:43:34.518Z,71.28
2023-04-15T13:46:38.089Z,71.93
2023-04-15T13:49:40.216Z,72.61
2023-04-15T13:52:42.414Z,72.10
2023-04-15T13:55:44.472Z,70.73
2023-04-15T13:58:46.467Z,71.88
2023-04-15T14:01:48.739Z,70.89
2023-04-15T14:04:51.396Z,66.82
2023-04-15T14:07:53.800Z,66.63
2023-04-15T14:10:55.956Z,68.92
2023-04-15T14:13:58.065Z,69.21
2023-04-15T14:17:00.297Z,69.26
2023-04-15T14:20:02.461Z,67.50
2023-04-15T14:23:04.518Z,70.42
2023-04-15T14:26:06.728Z,69.76
2023-04-15T14:29:08.688Z,70.45
2023-04-15T14:32:12.789Z,71.49
2023-04-15T14:35:15.135Z,72.64
2023-04-15T14:38:17.294Z,72.50
2023-04-15T14:41:19.289Z,72.41
2023-04-15T14:44:21.610Z,72.95
2023-04-15T14:47:24.477Z,70.87
2023-04-15T14:50:27.139Z,71.94
2023-04-15T14:53:29.209Z,71.02
2023-04-15T14:56:31.727Z,70.11
2023-04-15T14:59:33.889Z,70.70
2023-04-15T15:02:39.663Z,70.92
2023-04-15T15:05:45.224Z,71.51
2023-04-15T15:08:47.730Z,71.20
2023-04-15T15:11:50.453Z,70.55
2023-04-15T15:14:52.655Z,71.14
2023-04-15T15:17:54.899Z,70.22
2023-04-15T15:20:57.247Z,70.65
2023-04-15T15:23:59.373Z,71.23
2023-04-15T15:27:02.315Z,69.54
2023-04-15T15:30:04.649Z,69.70
2023-04-15T15:33:06.737Z,69.78
2023-04-15T15:36:10.939Z,70.37
2023-04-15T15:39:12.990Z,70.65
2023-04-15T15:42:15.025Z,71.04
2023-04-15T15:45:17.851Z,71.22
2023-04-15T15:48:20.011Z,71.10
2023-04-15T15:51:22.210Z,71.25
2023-04-15T15:54:25.115Z,71.01
2023-04-15T15:57:30.383Z,73.03
2023-04-15T16:00:32.684Z,73.28
2023-04-15T16:03:34.839Z,71.87
2023-04-15T16:06:36.946Z,72.33
2023-04-15T16:09:41.548Z,72.49
2023-04-15T16:12:43.719Z,71.93
2023-04-15T16:15:46.241Z,73.01
2023-04-15T16:18:48.291Z,73.61
2023-04-15T16:21:50.756Z,71.21
2023-04-15T16:24:53.910Z,72.91
2023-04-15T16:28:03.490Z,72.14
2023-04-15T16:31:13.821Z,72.95
2023-04-15T16:34:16.393Z,72.95
2023-04-15T16:37:18.398Z,72.85
2023-04-15T16:40:20.468Z,73.22
2023-04-15T16:43:22.582Z,72.55
2023-04-15T16:46:24.867Z,73.39
2023-04-15T16:49:26.954Z,74.41
2023-04-15T16:52:29.396Z,74.95
2023-04-15T16:55:32.062Z,75.17
2023-04-15T16:58:34.332Z,75.89
2023-04-15T17:01:37.049Z,76.15
2023-04-15T17:04:40.680Z,76.92
2023-04-15T17:07:43.280Z,77.71
2023-04-15T17:10:45.755Z,77.88
2023-04-15T17:13:47.925Z,78.44
2023-04-15T17:16:50.249Z,78.31
2023-04-15T17:19:52.501Z,79.28
2023-04-15T17:22:55.093Z,80.37
2023-04-15T17:25:57.324Z,78.44
2023-04-15T17:28:59.686Z,77.18
2023-04-15T17:32:04.269Z,76.85
2023-04-15T17:35:07.593Z,76.89
2023-04-15T17:38:09.829Z,74.09
2023-04-15T17:41:12.591Z,74.81
2023-04-15T17:44:15.229Z,73.38
2023-04-15T17:47:17.787Z,73.81
2023-04-15T17:50:20.988Z,74.71
2023-04-15T17:53:23.549Z,75.26
2023-04-15T17:56:28.504Z,75.59
2023-04-15T17:59:32.227Z,76.60
2023-04-15T18:04:14.952Z,78.06
2023-04-15T18:07:17.744Z,78.20
2023-04-15T18:10:21.184Z,77.48
2023-04-15T18:13:24.012Z,78.44
2023-04-15T18:16:27.765Z,79.09
2023-04-15T18:19:32.997Z,79.51
2023-04-15T18:22:35.760Z,79.86
2023-04-15T18:25:39.362Z,80.95
2023-04-15T18:28:42.368Z,81.42
2023-04-15T18:31:45.459Z,81.66
2023-04-15T18:34:48.088Z,81.90
2023-04-15T18:37:53.851Z,82.05
2023-04-15T18:40:56.716Z,82.48
2023-04-15T18:43:59.740Z,82.57
2023-04-15T18:47:03.275Z,82.47
2023-04-15T18:50:07.259Z,83.03
2023-04-15T18:53:09.854Z,83.39
2023-04-15T18:56:26.826Z,83.41
2023-04-15T18:59:30.702Z,83.58
2023-04-15T19:02:34.138Z,83.75
2023-04-15T19:05:37.920Z,83.92
2023-04-15T19:08:41.070Z,84.09
2023-04-15T19:11:48.756Z,84.13
2023-04-15T19:14:51.385Z,84.38
2023-04-15T19:17:54.462Z,84.88
2023-04-15T19:21:00.735Z,85.18
2023-04-15T19:24:03.890Z,85.42
2023-04-15T19:27:06.955Z,85.54
2023-04-15T19:30:15.086Z,85.58
2023-04-15T19:33:18.121Z,85.61
2023-04-15T19:36:21.999Z,86.23
2023-04-15T19:39:25.251Z,86.27
2023-04-15T19:42:28.481Z,86.79
2023-04-15T19:45:32.279Z,87.28
2023-04-15T19:48:35.122Z,87.27
2023-04-15T19:51:37.332Z,87.38
2023-04-15T19:54:40.193Z,87.21
2023-04-15T19:57:42.832Z,87.61
2023-04-15T20:00:45.840Z,87.57
2023-04-15T20:03:49.655Z,87.66
2023-04-15T20:06:53.431Z,87.50
2023-04-15T20:09:57.806Z,88.11
2023-04-15T20:13:00.616Z,88.24
2023-04-15T20:16:03.708Z,88.07
2023-04-15T20:19:09.933Z,88.47
2023-04-15T20:22:12.546Z,88.68
2023-04-15T20:25:15.903Z,88.59
2023-04-15T20:28:19.960Z,88.90
2023-04-15T20:31:23.345Z,88.43
2023-04-15T20:34:26.424Z,88.66
2023-04-15T20:37:30.604Z,88.86
2023-04-15T20:40:35.958Z,89.28
2023-04-15T20:43:39.092Z,88.99
2023-04-15T20:46:41.844Z,89.09
2023-04-15T20:49:44.011Z,89.17
2023-04-15T20:52:48.220Z,89.09
2023-04-15T20:55:50.672Z,89.17
2023-04-15T20:58:53.676Z,88.75
2023-04-15T21:01:57.453Z,88.86
2023-04-15T21:04:59.953Z,88.96
2023-04-15T21:08:02.166Z,89.21
2023-04-15T21:11:04.478Z,89.26
2023-04-15T21:14:08.626Z,89.49
2023-04-15T21:17:11.623Z,89.27
2023-04-15T21:20:13.836Z,89.30
2023-04-15T21:23:15.960Z,89.48
2023-04-15T21:26:18.504Z,89.36
2023-04-15T21:29:20.750Z,89.25
2023-04-15T21:32:22.982Z,89.40
2023-04-15T21:35:25.192Z,89.49
2023-04-15T21:38:27.439Z,89.58
2023-04-15T21:41:29.862Z,89.45
2023-04-15T21:44:31.872Z,89.57
2023-04-15T21:47:59.395Z,89.46
2023-04-15T21:51:00.409Z,89.63
2023-04-15T21:54:02.721Z,89.46
2023-04-15T21:57:04.809Z,89.72
2023-04-15T22:00:08.709Z,89.78
2023-04-15T22:03:10.815Z,89.72
2023-04-15T22:06:13.905Z,89.77
2023-04-15T22:09:16.228Z,89.79
2023-04-15T22:12:18.351Z,90.18
2023-04-15T22:15:20.392Z,90.10
2023-04-15T22:18:22.380Z,89.99
2023-04-15T22:21:24.466Z,89.90
2023-04-15T22:24:32.544Z,90.05
2023-04-15T22:27:42.032Z,90.07
2023-04-15T22:30:44.083Z,90.26
2023-04-15T22:33:46.091Z,90.17
2023-04-15T22:36:49.246Z,90.15
2023-04-15T22:39:52.050Z,90.25
2023-04-15T22:42:54.155Z,90.20
2023-04-15T22:45:56.876Z,90.10
2023-04-15T22:48:59.043Z,90.13
2023-04-15T22:52:01.195Z,90.34
2023-04-15T22:55:04.061Z,90.17
2023-04-15T22:58:06.236Z,90.39
2023-04-15T23:01:08.516Z,90.62
2023-04-15T23:04:10.993Z,90.51
2023-04-15T23:07:25.543Z,90.62
2023-04-15T23:10:28.490Z,90.66
2023-04-15T23:13:30.633Z,90.49
2023-04-15T23:16:32.893Z,90.34
2023-04-15T23:19:34.992Z,90.64
2023-04-15T23:22:38.005Z,90.74
2023-04-15T23:25:39.907Z,90.74
2023-04-15T23:28:41.957Z,90.61
2023-04-15T23:31:44.008Z,90.72
2023-04-15T23:34:46.122Z,90.72
2023-04-15T23:37:48.232Z,90.63
2023-04-15T23:40:51.584Z,90.53
2023-04-15T23:43:53.603Z,90.45
2023-04-15T23:46:56.033Z,90.70
2023-04-15T23:49:58.108Z,90.91
2023-04-15T23:53:00.284Z,90.60
2023-04-15T23:56:02.359Z,90.62
2023-04-15T23:59:04.504Z,90.33
